createdAt,value
2018-09-28T00:01:02.010Z,78.64
2018-09-28T00:03:30.286Z,79.40
2018-09-28T00:05:58.561Z,79.33
2018-09-28T00:08:26.824Z,79.62
2018-09-28T00:10:55.068Z,79.81
2018-09-28T00:13:29.511Z,79.81
2018-09-28T00:27:27.207Z,79.09
2018-09-28T00:29:55.438Z,79.46
2018-09-28T00:32:23.684Z,79.30
2018-09-28T00:34:52.026Z,79.44
2018-09-28T00:37:20.287Z,79.13
2018-09-28T00:39:48.561Z,79.17
2018-09-28T00:42:16.875Z,78.48
2018-09-28T00:44:45.108Z,78.33
2018-09-28T00:47:13.371Z,78.38
2018-09-28T00:49:41.633Z,77.53
2018-09-28T00:52:09.886Z,77.73
2018-09-28T00:54:38.161Z,76.93
2018-09-28T00:57:06.511Z,76.71
2018-09-28T00:59:34.740Z,76.81
2018-09-28T01:02:03.017Z,76.33
2018-09-28T01:04:31.257Z,76.58
2018-09-28T01:06:59.527Z,75.79
2018-09-28T01:09:27.770Z,75.97
2018-09-28T01:11:56.047Z,75.75
2018-09-28T01:17:39.486Z,75.42
2018-09-28T01:20:27.599Z,73.98
2018-09-28T01:25:48.144Z,73.48
2018-09-28T02:16:50.988Z,65.52
2018-09-28T02:19:32.088Z,66.06
2018-09-28T02:22:00.394Z,66.77
2018-09-28T02:24:28.736Z,66.18
2018-09-28T02:26:56.973Z,66.04
2018-09-28T02:29:25.222Z,65.89
2018-09-28T02:31:53.477Z,66.20
2018-09-28T02:34:21.721Z,66.36
2018-09-28T02:36:49.974Z,65.04
2018-09-28T02:39:18.237Z,65.01
2018-09-28T02:41:46.477Z,65.29
2018-09-28T02:44:14.727Z,64.65
2018-09-28T02:46:42.981Z,63.94
2018-09-28T02:49:11.225Z,63.48
2018-09-28T02:51:39.485Z,63.08
2018-09-28T02:54:07.746Z,62.44
2018-09-28T02:56:35.982Z,63.42
2018-09-28T02:59:04.237Z,63.28
2018-09-28T03:01:32.498Z,63.54
2018-09-28T03:04:00.852Z,63.70
2018-09-28T03:06:29.232Z,63.64
2018-09-28T03:08:57.472Z,63.01
2018-09-28T03:11:25.728Z,62.55
2018-09-28T03:14:13.730Z,62.84
2018-09-28T03:16:41.994Z,63.06
2018-09-28T03:19:10.257Z,63.33
2018-09-28T03:21:50.490Z,62.96
2018-09-28T05:13:02.488Z,59.44
2018-09-28T05:15:30.793Z,59.59
2018-09-28T05:17:59.085Z,59.57
2018-09-28T05:20:27.349Z,59.76
2018-09-28T05:23:05.944Z,59.44
2018-09-28T06:14:17.653Z,58.10
2018-09-28T06:16:45.914Z,58.06
2018-09-28T06:19:14.239Z,57.63
2018-09-28T06:24:35.183Z,57.75
2018-09-28T06:39:04.956Z,58.79
2018-09-28T06:41:33.209Z,58.39
2018-09-28T06:44:01.460Z,58.29
2018-09-28T06:46:29.738Z,58.13
2018-09-28T06:48:57.986Z,58.43
2018-09-28T06:51:26.319Z,57.65
2018-09-28T06:53:54.612Z,57.35
2018-09-28T06:56:22.892Z,56.89
2018-09-28T06:58:51.147Z,56.67
2018-09-28T07:01:19.445Z,55.59
2018-09-28T07:03:47.727Z,55.41
2018-09-28T07:06:16.015Z,55.99
2018-09-28T07:08:44.257Z,55.89
2018-09-28T07:11:12.490Z,54.84
2018-09-28T07:19:25.649Z,54.43
2018-09-28T07:24:46.661Z,54.76
2018-09-28T08:15:49.178Z,52.96
2018-09-28T08:18:18.374Z,52.56
2018-09-28T08:20:47.801Z,52.83
2018-09-28T08:23:18.697Z,53.22
2018-09-28T08:25:46.914Z,52.75
2018-09-28T08:28:15.209Z,52.78
2018-09-28T08:33:26.106Z,52.82
2018-09-28T08:35:54.375Z,52.19
2018-09-28T08:38:22.653Z,50.99
2018-09-28T08:40:50.958Z,50.88
2018-09-28T08:43:19.210Z,51.53
2018-09-28T08:45:47.472Z,52.01
2018-09-28T08:48:15.725Z,51.20
2018-09-28T08:50:43.988Z,51.00
2018-09-28T08:53:12.229Z,50.20
2018-09-28T08:55:40.501Z,50.68
2018-09-28T08:58:08.749Z,50.16
2018-09-28T09:00:36.993Z,49.25
2018-09-28T09:03:05.229Z,50.86
2018-09-28T09:05:33.487Z,51.33
2018-09-28T09:08:01.750Z,49.93
2018-09-28T09:10:30.000Z,50.91
2018-09-28T09:12:58.242Z,51.18
2018-09-28T10:18:30.683Z,43.44
2018-09-28T10:26:44.129Z,42.33
2018-09-28T10:29:12.369Z,41.88
2018-09-28T10:31:40.604Z,41.32
2018-09-28T10:34:08.878Z,40.75
2018-09-28T10:36:37.106Z,41.08
2018-09-28T10:39:06.771Z,40.95
2018-09-28T10:41:35.913Z,40.74
2018-09-28T10:44:04.410Z,40.37
2018-09-28T10:46:32.662Z,40.99
2018-09-28T10:49:00.973Z,39.53
2018-09-28T10:51:29.310Z,39.78
2018-09-28T10:53:57.645Z,40.48
2018-09-28T10:56:25.931Z,39.82
2018-09-28T10:58:54.270Z,40.33
2018-09-28T11:01:22.473Z,40.99
2018-09-28T11:03:50.806Z,39.56
2018-09-28T11:06:18.977Z,39.34
2018-09-28T11:08:47.341Z,38.65
2018-09-28T11:11:15.518Z,39.31
2018-09-28T11:25:13.202Z,39.74
2018-09-28T12:16:13.222Z,41.38
2018-09-28T12:18:41.511Z,42.17
2018-09-28T12:21:21.772Z,43.52
2018-09-28T12:26:42.573Z,40.66
2018-09-28T12:29:10.864Z,40.07
2018-09-28T12:31:39.105Z,42.16
2018-09-28T12:34:07.386Z,43.27
2018-09-28T12:36:35.666Z,43.71
2018-09-28T12:39:05.242Z,41.10
2018-09-28T12:41:33.501Z,38.75
2018-09-28T12:44:01.761Z,37.18
2018-09-28T12:46:30.002Z,37.10
2018-09-28T12:48:58.275Z,36.14
2018-09-28T12:51:26.517Z,36.97
2018-09-28T12:53:54.768Z,38.02
2018-09-28T12:56:23.003Z,37.83
2018-09-28T12:58:51.258Z,38.17
2018-09-28T13:04:15.765Z,37.37
2018-09-28T13:06:44.041Z,38.20
2018-09-28T13:09:12.359Z,40.36
2018-09-28T13:11:40.585Z,38.27
2018-09-28T14:12:14.897Z,38.31
2018-09-28T14:26:14.966Z,37.03
2018-09-28T14:28:43.234Z,37.47
2018-09-28T14:31:11.508Z,36.50
2018-09-28T14:33:39.792Z,39.25
2018-09-28T14:36:08.142Z,40.00
2018-09-28T14:38:36.451Z,40.96
2018-09-28T14:41:04.677Z,41.23
2018-09-28T14:43:32.936Z,40.11
2018-09-28T14:46:01.201Z,41.51
2018-09-28T14:48:29.496Z,41.79
2018-09-28T14:50:57.706Z,40.78
2018-09-28T14:53:26.108Z,39.83
2018-09-28T14:55:54.675Z,40.39
2018-09-28T14:58:23.002Z,41.04
2018-09-28T15:00:51.539Z,40.17
2018-09-28T15:03:20.056Z,40.47
2018-09-28T15:05:48.532Z,39.32
2018-09-28T15:08:16.899Z,39.12
2018-09-28T15:10:45.156Z,39.71
2018-09-28T15:13:13.987Z,41.04
2018-09-28T16:16:07.934Z,47.91
2018-09-28T16:18:36.284Z,48.34
2018-09-28T16:21:04.524Z,49.39
2018-09-28T16:23:36.765Z,49.50
2018-09-28T16:57:54.592Z,52.17
2018-09-28T17:00:22.922Z,52.00
2018-09-28T17:02:51.156Z,51.87
2018-09-28T17:05:19.418Z,51.96
2018-09-28T17:07:47.681Z,52.47
2018-09-28T17:10:15.903Z,53.09
2018-09-28T17:12:45.273Z,53.05
2018-09-28T17:23:52.317Z,53.53
2018-09-28T17:26:20.595Z,52.52
2018-09-28T18:26:52.799Z,55.44
2018-09-28T18:29:27.474Z,54.97
2018-09-28T18:31:55.834Z,55.89
2018-09-28T18:34:24.128Z,55.53
2018-09-28T18:36:52.372Z,55.63
2018-09-28T18:39:21.574Z,55.65
2018-09-28T18:41:49.839Z,55.47
2018-09-28T18:44:18.139Z,56.20
2018-09-28T18:46:46.449Z,56.54
2018-09-28T18:49:14.726Z,56.56
2018-09-28T18:51:43.010Z,57.03
2018-09-28T18:54:11.277Z,56.69
2018-09-28T18:56:39.546Z,55.65
2018-09-28T18:59:08.734Z,55.35
2018-09-28T19:01:37.033Z,55.29
2018-09-28T19:04:05.331Z,55.45
2018-09-28T19:06:33.610Z,55.61
2018-09-28T19:09:01.849Z,54.74
2018-09-28T19:11:30.101Z,54.96
2018-09-28T19:13:58.429Z,54.89
2018-09-28T19:16:26.729Z,55.27
2018-09-28T19:18:55.005Z,54.64
2018-09-28T19:27:08.829Z,54.04
2018-09-28T19:29:37.154Z,53.40
2018-09-28T19:32:05.469Z,53.67
2018-09-28T19:34:33.800Z,53.79
2018-09-28T19:37:02.037Z,53.19
2018-09-28T19:39:30.333Z,53.96
2018-09-28T19:41:58.637Z,53.93
2018-09-28T19:44:26.937Z,53.32
2018-09-28T19:46:55.271Z,53.26
2018-09-28T19:49:23.577Z,53.68
2018-09-28T19:51:51.854Z,52.93
2018-09-28T19:54:20.257Z,53.46
2018-09-28T19:56:48.666Z,52.80
2018-09-28T19:59:16.985Z,52.66
2018-09-28T20:01:45.289Z,52.53
2018-09-28T20:04:13.593Z,52.57
2018-09-28T20:06:41.876Z,52.35
2018-09-28T20:09:11.269Z,52.23
2018-09-28T20:11:39.912Z,52.41
2018-09-28T20:14:08.540Z,51.82
2018-09-28T21:14:12.481Z,53.77
2018-09-28T22:14:13.301Z,54.00
2018-09-28T23:23:23.800Z,55.41
